Time;durP1;ratioP1;P1;durP2;ratioP2;P2;SDS_P1;SDS_P2;PMS_P1;PMS_P2;Temp;Humidity;BMP_temperature;BMP_pressure;BME280_temperature;BME280_humidity;BME280_pressure;Samples;Min_cycle;Max_cycle;Signal;HPM_P1;HPM_P2
2023/04/27 00:01:24;;;;;;;6.40;3.15;;;6.60;83.80;;;;;;6220151;22;20065;-78
2023/04/27 00:03:51;;;;;;;6.53;2.78;;;6.50;83.40;;;;;;6220842;22;20027;-78
2023/04/27 00:06:18;;;;;;;10.73;4.38;;;6.50;83.00;;;;;;6221626;22;20130;-78
2023/04/27 00:08:45;;;;;;;15.40;6.20;;;6.50;82.80;;;;;;6246446;22;20069;-78
2023/04/27 00:11:12;;;;;;;12.23;5.40;;;6.50;82.80;;;;;;6220581;22;20024;-78
2023/04/27 00:13:40;;;;;;;10.23;4.88;;;6.50;84.30;;;;;;6272168;22;20015;-78
2023/04/27 00:16:07;;;;;;;12.60;5.68;;;6.40;85.20;;;;;;6220960;22;20455;-78
2023/04/27 00:18:35;;;;;;;12.18;5.07;;;6.40;85.30;;;;;;6220907;22;20012;-78
2023/04/27 00:21:02;;;;;;;9.35;5.03;;;6.40;85.60;;;;;;6221886;22;20047;-79
2023/04/27 00:23:30;;;;;;;10.00;5.15;;;6.40;85.30;;;;;;6246569;22;20795;-78
2023/04/27 00:25:57;;;;;;;12.30;4.93;;;6.40;87.30;;;;;;6246886;22;20443;-78
2023/04/27 00:28:24;;;;;;;12.50;6.32;;;6.30;85.80;;;;;;6219923;22;20038;-78
2023/04/27 00:30:53;;;;;;;14.07;6.75;;;6.40;86.30;;;;;;6244669;22;20030;-78
2023/04/27 00:33:20;;;;;;;13.40;6.57;;;6.30;85.60;;;;;;6220254;22;20026;-78
2023/04/27 00:35:47;;;;;;;12.95;6.75;;;6.30;86.20;;;;;;6220114;22;20133;-79
2023/04/27 00:38:15;;;;;;;12.07;5.90;;;6.30;88.00;;;;;;6221524;22;20019;-78
2023/04/27 00:40:42;;;;;;;16.30;6.00;;;6.30;88.40;;;;;;6221019;22;20460;-78
2023/04/27 00:43:09;;;;;;;10.20;5.20;;;6.20;89.10;;;;;;6221404;22;20024;-78
2023/04/27 00:45:42;;;;;;;12.15;5.38;;;6.20;89.10;;;;;;6219774;22;20043;-78
2023/04/27 00:48:10;;;;;;;7.82;4.82;;;6.20;89.20;;;;;;6245770;22;20019;-78
2023/04/27 00:50:38;;;;;;;10.88;4.85;;;6.10;89.40;;;;;;6246601;22;20032;-77
2023/04/27 00:53:06;;;;;;;12.55;4.13;;;6.10;88.60;;;;;;6219815;22;20024;-78
2023/04/27 00:55:33;;;;;;;10.13;4.75;;;6.10;89.00;;;;;;6245349;22;20404;-78
2023/04/27 00:58:01;;;;;;;9.88;4.10;;;6.00;89.60;;;;;;6220301;22;20043;-78
2023/04/27 01:00:28;;;;;;;21.27;4.38;;;6.00;89.90;;;;;;6221135;22;20016;-80
2023/04/27 01:02:56;;;;;;;8.23;3.90;;;6.00;90.10;;;;;;6218993;22;20048;-80
2023/04/27 01:05:26;;;;;;;10.25;4.10;;;6.00;90.70;;;;;;6220902;22;20032;-80
2023/04/27 01:07:54;;;;;;;10.00;4.15;;;6.00;90.40;;;;;;6244471;22;20039;-80
2023/04/27 01:10:21;;;;;;;10.80;4.38;;;5.90;90.50;;;;;;6221461;22;20520;-80
2023/04/27 01:12:48;;;;;;;9.40;4.90;;;5.80;90.90;;;;;;6221147;22;20035;-80
2023/04/27 01:15:15;;;;;;;8.55;3.97;;;5.90;90.70;;;;;;6220210;22;20704;-80
2023/04/27 01:17:43;;;;;;;12.80;4.63;;;5.90;90.70;;;;;;6222131;22;20582;-78
2023/04/27 01:20:10;;;;;;;8.57;4.13;;;5.80;90.50;;;;;;6221551;22;20057;-78
2023/04/27 01:22:38;;;;;;;11.45;4.63;;;5.80;90.60;;;;;;6246352;22;20023;-78
2023/04/27 01:25:06;;;;;;;9.55;4.00;;;5.70;90.80;;;;;;6222477;22;20392;-79
2023/04/27 01:27:34;;;;;;;8.10;3.05;;;5.70;90.80;;;;;;6195493;22;20111;-79
2023/04/27 01:30:02;;;;;;;7.20;3.42;;;5.70;90.50;;;;;;6221809;22;20027;-78
2023/04/27 01:32:29;;;;;;;10.57;3.40;;;5.60;90.50;;;;;;6222480;22;20032;-79
2023/04/27 01:34:56;;;;;;;7.13;3.58;;;5.60;90.20;;;;;;6222424;22;20085;-78
2023/04/27 01:37:25;;;;;;;8.75;3.90;;;5.50;90.60;;;;;;6223719;22;20016;-78
2023/04/27 01:39:52;;;;;;;7.85;3.88;;;5.60;90.70;;;;;;6221547;22;20022;-78
2023/04/27 01:42:19;;;;;;;7.25;3.90;;;5.50;91.50;;;;;;6220358;22;20521;-78
2023/04/27 01:44:47;;;;;;;9.60;4.45;;;5.50;91.50;;;;;;6220539;22;20082;-78
2023/04/27 01:47:16;;;;;;;8.68;3.55;;;5.50;91.40;;;;;;6220393;22;20016;-78
2023/04/27 01:49:43;;;;;;;10.80;4.53;;;5.40;91.00;;;;;;6220645;22;20748;-78
2023/04/27 01:52:10;;;;;;;7.05;3.70;;;5.40;91.00;;;;;;6221557;22;20025;-78
2023/04/27 01:54:38;;;;;;;8.15;4.10;;;5.40;92.00;;;;;;6246832;22;20024;-78
2023/04/27 01:57:05;;;;;;;8.35;3.92;;;5.40;92.00;;;;;;6221772;22;20019;-78
2023/04/27 01:59:33;;;;;;;9.65;4.13;;;5.40;92.20;;;;;;6221246;22;20796;-78
2023/04/27 02:02:00;;;;;;;8.98;3.85;;;5.30;92.40;;;;;;6221854;22;20024;-79
2023/04/27 02:04:28;;;;;;;8.23;3.67;;;5.40;91.80;;;;;;6221072;22;20058;-79
2023/04/27 02:06:57;;;;;;;7.85;3.45;;;5.30;91.80;;;;;;6221638;22;20023;-78
2023/04/27 02:09:24;;;;;;;8.10;3.75;;;5.30;92.00;;;;;;6221668;22;20023;-78
2023/04/27 02:11:51;;;;;;;5.50;3.10;;;5.20;92.30;;;;;;6221242;22;20023;-79
2023/04/27 02:14:18;;;;;;;11.32;3.45;;;5.20;92.30;;;;;;6221769;22;20367;-79
2023/04/27 02:16:46;;;;;;;8.82;4.07;;;5.20;92.30;;;;;;6221205;22;20462;-79
2023/04/27 02:19:13;;;;;;;10.65;5.32;;;5.20;92.20;;;;;;6246247;22;20011;-79
2023/04/27 02:21:41;;;;;;;10.07;3.90;;;5.20;92.30;;;;;;6221594;22;20023;-78
2023/04/27 02:24:08;;;;;;;9.00;4.85;;;5.20;92.90;;;;;;6221401;22;20055;-78
2023/04/27 02:26:35;;;;;;;13.18;4.30;;;5.20;93.30;;;;;;6219822;22;20034;-79
2023/04/27 02:29:02;;;;;;;12.77;4.38;;;5.10;93.40;;;;;;6221930;22;20020;-78
2023/04/27 02:31:30;;;;;;;10.50;4.10;;;5.10;93.90;;;;;;6222341;22;20027;-79
2023/04/27 02:33:57;;;;;;;8.73;3.97;;;5.00;93.70;;;;;;6221953;22;20023;-78
2023/04/27 02:36:25;;;;;;;10.35;4.57;;;5.00;93.60;;;;;;6221423;22;20019;-79
2023/04/27 02:38:55;;;;;;;10.45;4.50;;;5.00;93.50;;;;;;6220443;22;20026;-80
2023/04/27 02:41:22;;;;;;;9.80;3.97;;;5.00;94.40;;;;;;6220905;22;20059;-78
2023/04/27 02:43:50;;;;;;;8.88;4.35;;;5.00;94.40;;;;;;6246745;22;20027;-78
2023/04/27 02:46:17;;;;;;;9.70;5.10;;;5.00;94.30;;;;;;6221678;22;20030;-80
2023/04/27 02:48:44;;;;;;;9.57;4.72;;;5.00;94.40;;;;;;6221040;22;20024;-80
2023/04/27 02:51:11;;;;;;;12.80;4.28;;;4.90;94.00;;;;;;6246327;22;20595;-80
2023/04/27 02:53:38;;;;;;;6.72;4.25;;;5.00;93.90;;;;;;6221951;22;20019;-80
2023/04/27 02:56:05;;;;;;;10.85;4.63;;;4.90;94.10;;;;;;6222393;22;20023;-80
2023/04/27 02:58:33;;;;;;;9.98;4.10;;;4.90;94.00;;;;;;6220968;22;20630;-80
2023/04/27 03:01:00;;;;;;;8.43;3.95;;;4.90;93.70;;;;;;6223042;22;20069;-78
2023/04/27 03:03:27;;;;;;;7.05;3.67;;;4.90;93.60;;;;;;6222725;22;20347;-79
2023/04/27 03:05:54;;;;;;;6.78;2.97;;;4.90;93.70;;;;;;6221180;22;20020;-78
2023/04/27 03:08:22;;;;;;;7.93;3.15;;;5.00;93.50;;;;;;6245470;22;20024;-79
2023/04/27 03:10:49;;;;;;;5.82;3.00;;;5.00;93.40;;;;;;6221174;22;20027;-78
2023/04/27 03:13:16;;;;;;;7.25;3.10;;;5.10;93.20;;;;;;6245761;22;20471;-79
2023/04/27 03:15:43;;;;;;;5.95;3.05;;;5.00;93.00;;;;;;6220217;22;20515;-79
2023/04/27 03:18:11;;;;;;;7.32;3.05;;;5.10;93.20;;;;;;6221419;22;20020;-79
2023/04/27 03:20:40;;;;;;;7.32;3.42;;;5.10;93.40;;;;;;6222012;22;20461;-78
2023/04/27 03:23:07;;;;;;;6.05;3.17;;;5.10;94.10;;;;;;6220135;22;20015;-78
2023/04/27 03:25:34;;;;;;;6.10;3.08;;;5.10;94.00;;;;;;6220424;22;20114;-78
2023/04/27 03:28:01;;;;;;;7.00;3.10;;;5.10;93.80;;;;;;6245574;22;20533;-78
2023/04/27 03:30:28;;;;;;;9.52;3.13;;;4.90;93.30;;;;;;6220184;22;20047;-78
2023/04/27 03:32:55;;;;;;;7.40;3.13;;;4.90;93.50;;;;;;6220136;22;20660;-78
2023/04/27 03:35:23;;;;;;;6.68;2.88;;;4.90;93.50;;;;;;6219831;22;20019;-80
2023/04/27 03:37:50;;;;;;;6.40;3.92;;;4.90;93.30;;;;;;6219783;22;20026;-80
2023/04/27 03:40:17;;;;;;;6.93;2.97;;;4.80;93.60;;;;;;6220245;22;20026;-79
2023/04/27 03:42:44;;;;;;;9.43;2.95;;;4.80;93.50;;;;;;6246196;22;20015;-78
2023/04/27 03:45:11;;;;;;;7.28;3.47;;;4.80;94.30;;;;;;6220202;22;20106;-80
2023/04/27 03:47:38;;;;;;;7.82;3.45;;;4.80;94.90;;;;;;6221323;22;20089;-80
2023/04/27 03:50:06;;;;;;;8.02;3.25;;;4.70;94.80;;;;;;6244590;22;20062;-78
2023/04/27 03:52:33;;;;;;;7.93;3.15;;;4.70;95.10;;;;;;6246296;22;20031;-78
2023/04/27 03:55:00;;;;;;;7.05;3.60;;;4.80;94.60;;;;;;6220491;22;20019;-78
2023/04/27 03:57:27;;;;;;;10.93;3.33;;;4.80;94.40;;;;;;6219992;22;20107;-79
2023/04/27 03:59:56;;;;;;;10.30;3.67;;;4.80;94.40;;;;;;6219772;22;20024;-79
2023/04/27 04:02:24;;;;;;;6.03;3.60;;;4.80;94.40;;;;;;6219254;22;20019;-79
2023/04/27 04:04:51;;;;;;;6.40;3.47;;;4.80;93.90;;;;;;6220094;22;20070;-79
2023/04/27 04:07:19;;;;;;;8.80;3.58;;;4.80;94.30;;;;;;6220760;22;20031;-79
2023/04/27 04:09:46;;;;;;;7.97;3.70;;;4.80;94.40;;;;;;6219991;22;20106;-79
2023/04/27 04:12:14;;;;;;;8.88;3.78;;;4.80;94.50;;;;;;6245921;22;20028;-78
2023/04/27 04:14:41;;;;;;;11.20;3.65;;;4.70;94.30;;;;;;6220538;22;20031;-79
2023/04/27 04:17:09;;;;;;;11.50;3.63;;;4.80;94.20;;;;;;6222023;22;20102;-79
2023/04/27 04:19:40;;;;;;;11.20;4.10;;;4.90;94.50;;;;;;6221016;22;20099;-78
2023/04/27 04:22:07;;;;;;;11.30;4.10;;;4.90;94.40;;;;;;6219169;22;20047;-79
2023/04/27 04:24:35;;;;;;;9.63;3.38;;;4.90;94.40;;;;;;6220510;22;20028;-79
2023/04/27 04:27:02;;;;;;;11.10;4.38;;;4.90;94.40;;;;;;6245099;22;20016;-79
2023/04/27 04:29:29;;;;;;;7.95;3.35;;;4.90;94.60;;;;;;6245062;22;20048;-79
2023/04/27 04:31:56;;;;;;;7.43;3.30;;;5.00;94.90;;;;;;6222323;22;20054;-78
2023/04/27 04:34:23;;;;;;;7.72;3.55;;;5.00;95.60;;;;;;6219521;22;20420;-79
2023/04/27 04:36:51;;;;;;;7.00;3.95;;;5.00;95.90;;;;;;6219946;22;20023;-79
2023/04/27 04:39:19;;;;;;;12.93;4.22;;;5.00;96.10;;;;;;6245398;22;20451;-79
2023/04/27 04:41:47;;;;;;;12.10;6.10;;;5.10;96.30;;;;;;6244431;22;20455;-79
2023/04/27 04:44:15;;;;;;;13.02;6.50;;;5.10;96.60;;;;;;6221107;22;20026;-79
2023/04/27 04:46:43;;;;;;;13.43;6.30;;;5.10;96.80;;;;;;6224103;22;20026;-78
2023/04/27 04:49:10;;;;;;;13.55;6.10;;;5.20;95.80;;;;;;6222718;22;20016;-79
2023/04/27 04:51:44;;;;;;;12.38;6.30;;;5.20;95.90;;;;;;6223074;22;20016;-78
2023/04/27 04:54:11;;;;;;;11.50;5.22;;;5.20;95.50;;;;;;6221687;22;20073;-79
2023/04/27 04:56:38;;;;;;;9.93;4.50;;;5.30;95.30;;;;;;6221124;22;20522;-79
2023/04/27 04:59:06;;;;;;;15.90;4.90;;;5.40;94.70;;;;;;6221820;22;20020;-78
2023/04/27 05:01:33;;;;;;;8.38;3.50;;;5.50;94.90;;;;;;6221419;22;20023;-78
2023/04/27 05:04:00;;;;;;;7.28;3.25;;;5.60;94.80;;;;;;6247050;22;20828;-78
2023/04/27 05:06:28;;;;;;;12.70;3.25;;;5.70;94.30;;;;;;6221901;22;20523;-78
2023/04/27 05:08:55;;;;;;;8.60;3.78;;;5.80;93.40;;;;;;6220951;22;20023;-78
2023/04/27 05:11:22;;;;;;;8.40;3.60;;;5.80;93.00;;;;;;6245766;22;20062;-77
2023/04/27 05:13:49;;;;;;;7.97;3.20;;;5.80;92.30;;;;;;6246834;22;20043;-78
2023/04/27 05:16:16;;;;;;;7.07;2.80;;;5.90;92.10;;;;;;6247413;22;20027;-79
2023/04/27 05:18:43;;;;;;;8.68;3.67;;;6.00;91.80;;;;;;6222828;22;20024;-78
2023/04/27 05:21:15;;;;;;;6.78;2.88;;;6.10;91.80;;;;;;6222040;22;20363;-77
2023/04/27 05:23:42;;;;;;;5.32;2.70;;;6.20;91.40;;;;;;6221395;22;20019;-78
2023/04/27 05:26:14;;;;;;;6.80;2.50;;;6.30;90.50;;;;;;6221595;22;20024;-78
2023/04/27 05:28:41;;;;;;;4.80;1.95;;;6.40;90.40;;;;;;6247426;22;20024;-78
2023/04/27 05:31:09;;;;;;;5.10;2.47;;;6.50;90.00;;;;;;6221689;22;20035;-79
2023/04/27 05:33:36;;;;;;;6.53;2.15;;;6.60;89.30;;;;;;6221806;22;20111;-79
2023/04/27 05:36:03;;;;;;;6.75;2.80;;;6.70;89.60;;;;;;6221900;22;20081;-78
2023/04/27 05:38:32;;;;;;;6.97;2.15;;;6.90;89.60;;;;;;6244914;22;20035;-78
2023/04/27 05:40:59;;;;;;;5.30;1.95;;;7.00;87.10;;;;;;6221056;22;20034;-79
2023/04/27 05:43:26;;;;;;;5.43;2.10;;;7.10;85.70;;;;;;6220539;22;20037;-78
2023/04/27 05:45:54;;;;;;;7.32;2.03;;;7.20;86.10;;;;;;6246177;22;20015;-78
2023/04/27 05:48:21;;;;;;;5.90;2.30;;;7.30;85.50;;;;;;6215943;22;20024;-78
2023/04/27 05:50:48;;;;;;;4.05;1.85;;;7.50;84.00;;;;;;6221585;22;20024;-79
2023/04/27 05:53:16;;;;;;;4.75;2.33;;;7.60;83.60;;;;;;6222380;22;20162;-77
2023/04/27 05:55:43;;;;;;;4.43;2.30;;;7.70;81.70;;;;;;6212649;22;20019;-78
2023/04/27 05:58:10;;;;;;;6.85;2.08;;;7.90;81.10;;;;;;6260031;22;20027;-76
2023/04/27 06:00:37;;;;;;;3.75;1.67;;;8.00;80.40;;;;;;6207935;22;20049;-77
2023/04/27 06:03:04;;;;;;;7.15;2.05;;;8.20;79.90;;;;;;6231457;22;20469;-80
2023/04/27 06:05:33;;;;;;;8.60;2.42;;;8.40;79.00;;;;;;6208644;22;20030;-80
2023/04/27 06:08:00;;;;;;;4.68;1.50;;;8.50;78.10;;;;;;6209625;22;20077;-79
2023/04/27 06:10:27;;;;;;;3.10;1.23;;;8.70;77.30;;;;;;6207651;22;20024;-79
2023/04/27 06:12:54;;;;;;;3.47;1.80;;;8.80;76.40;;;;;;6209881;22;20073;-77
2023/04/27 06:15:21;;;;;;;7.97;1.58;;;9.00;75.70;;;;;;6210920;22;20540;-77
2023/04/27 06:17:48;;;;;;;3.60;0.93;;;9.10;74.50;;;;;;6239912;22;20313;-77
2023/04/27 06:20:16;;;;;;;4.82;1.38;;;9.20;73.40;;;;;;6214197;22;20023;-77
2023/04/27 06:22:43;;;;;;;3.78;1.42;;;9.40;73.60;;;;;;6210310;22;20027;-78
2023/04/27 06:25:10;;;;;;;3.80;1.00;;;9.50;73.80;;;;;;6238007;22;20024;-77
2023/04/27 06:27:38;;;;;;;4.20;1.30;;;9.60;72.50;;;;;;6208755;22;20116;-77
2023/04/27 06:30:06;;;;;;;3.30;1.10;;;9.50;71.80;;;;;;6206581;22;20042;-78
2023/04/27 06:32:33;;;;;;;4.75;1.15;;;9.70;72.20;;;;;;6233765;22;20496;-77
2023/04/27 06:35:00;;;;;;;4.97;1.20;;;9.90;72.20;;;;;;6210786;22;20066;-78
2023/04/27 06:37:28;;;;;;;4.78;1.13;;;10.10;72.00;;;;;;6214871;22;20044;-77
2023/04/27 06:39:55;;;;;;;2.35;1.10;;;10.10;71.70;;;;;;6214158;22;20474;-78
2023/04/27 06:42:23;;;;;;;3.90;1.25;;;10.30;71.20;;;;;;6238314;22;20038;-79
2023/04/27 06:44:55;;;;;;;2.42;1.38;;;10.30;70.70;;;;;;6207651;22;20034;-78
2023/04/27 06:47:23;;;;;;;3.15;1.65;;;10.30;70.40;;;;;;6234486;22;20043;-77
2023/04/27 06:49:50;;;;;;;2.75;1.05;;;10.70;72.20;;;;;;6235367;22;20043;-79
2023/04/27 06:52:17;;;;;;;4.28;1.38;;;10.90;69.40;;;;;;6209838;22;20455;-78
2023/04/27 06:54:44;;;;;;;2.38;0.93;;;11.10;70.20;;;;;;6211947;22;20398;-77
2023/04/27 06:57:11;;;;;;;5.60;1.50;;;11.20;70.00;;;;;;6211433;22;20023;-79
2023/04/27 06:59:38;;;;;;;4.07;1.27;;;11.30;70.10;;;;;;6201989;22;20023;-78
2023/04/27 07:02:06;;;;;;;3.25;1.67;;;11.50;70.90;;;;;;6205670;22;20335;-78
2023/04/27 07:04:34;;;;;;;5.10;1.88;;;11.40;69.10;;;;;;6206987;22;20020;-80
2023/04/27 07:07:01;;;;;;;4.72;1.38;;;11.50;70.20;;;;;;6199581;22;20030;-80
2023/04/27 07:09:29;;;;;;;2.42;1.17;;;11.60;69.50;;;;;;6208531;22;20055;-78
2023/04/27 07:11:57;;;;;;;3.78;1.42;;;11.70;71.10;;;;;;6207347;22;20016;-78
2023/04/27 07:14:25;;;;;;;4.95;1.10;;;11.90;70.60;;;;;;6232184;22;20034;-78
2023/04/27 07:16:52;;;;;;;3.72;1.58;;;12.00;70.90;;;;;;6203620;22;20447;-78
2023/04/27 07:19:19;;;;;;;3.70;1.30;;;12.10;70.00;;;;;;6231050;22;20085;-78
2023/04/27 07:21:47;;;;;;;3.08;0.80;;;12.00;67.90;;;;;;6232165;22;20026;-79
2023/04/27 07:24:14;;;;;;;3.15;1.05;;;12.10;68.50;;;;;;6258991;22;20019;-78
2023/04/27 07:26:41;;;;;;;3.70;1.33;;;12.30;67.30;;;;;;6207067;22;20050;-77
2023/04/27 07:29:09;;;;;;;2.58;1.17;;;12.40;66.70;;;;;;6206524;22;20028;-79
2023/04/27 07:31:54;;;;;;;2.13;0.85;;;12.40;64.20;;;;;;6236026;22;20054;-77
2023/04/27 07:34:22;;;;;;;2.72;0.70;;;12.60;67.40;;;;;;6208260;22;20481;-78
2023/04/27 07:36:53;;;;;;;3.88;0.93;;;12.50;65.80;;;;;;6206352;22;20447;-79
2023/04/27 07:39:20;;;;;;;2.05;0.80;;;12.40;65.20;;;;;;6230731;22;20026;-80
2023/04/27 07:41:48;;;;;;;4.53;1.05;;;12.90;68.00;;;;;;6230388;22;20023;-79
2023/04/27 07:44:17;;;;;;;1.98;1.00;;;12.90;65.50;;;;;;6207002;22;20074;-79
2023/04/27 07:46:48;;;;;;;2.70;1.00;;;12.90;62.40;;;;;;6207309;22;20082;-78
2023/04/27 07:49:15;;;;;;;3.08;1.00;;;13.00;65.30;;;;;;6208188;22;20020;-78
2023/04/27 07:51:43;;;;;;;2.42;1.00;;;13.20;62.90;;;;;;6233627;22;20016;-78
2023/04/27 07:54:10;;;;;;;3.08;0.93;;;13.00;60.60;;;;;;6208987;22;20201;-79
2023/04/27 07:56:41;;;;;;;2.83;1.23;;;12.90;59.10;;;;;;6207393;22;20358;-78
2023/04/27 07:59:08;;;;;;;1.38;0.70;;;12.80;61.50;;;;;;6231564;22;20763;-78
2023/04/27 08:01:36;;;;;;;2.35;1.00;;;12.40;62.00;;;;;;6206970;22;20027;-77
2023/04/27 08:04:04;;;;;;;2.85;0.77;;;12.20;63.20;;;;;;6205619;22;20345;-78
2023/04/27 08:06:32;;;;;;;2.00;1.02;;;11.90;63.00;;;;;;6230483;22;20481;-78
2023/04/27 08:09:02;;;;;;;4.05;0.80;;;11.60;63.30;;;;;;6230458;22;20032;-78
2023/04/27 08:11:30;;;;;;;3.20;0.77;;;11.50;63.30;;;;;;6230350;22;20023;-77
2023/04/27 08:13:58;;;;;;;2.65;1.00;;;11.40;65.20;;;;;;6202401;22;20039;-77
2023/04/27 08:16:25;;;;;;;5.78;1.40;;;11.40;64.60;;;;;;6202082;22;20024;-79
2023/04/27 08:18:52;;;;;;;2.60;0.70;;;11.40;64.90;;;;;;6244685;22;20016;-77
2023/04/27 08:21:19;;;;;;;4.20;1.05;;;11.10;64.10;;;;;;6233989;22;20020;-80
2023/04/27 08:23:47;;;;;;;4.72;1.65;;;11.20;64.40;;;;;;6208571;22;20050;-78
2023/04/27 08:26:15;;;;;;;2.28;0.93;;;11.20;63.70;;;;;;6207291;22;20024;-77
2023/04/27 08:28:42;;;;;;;3.80;1.13;;;11.40;64.10;;;;;;6208791;22;20031;-78
2023/04/27 08:31:09;;;;;;;2.30;0.98;;;11.30;63.30;;;;;;6234046;22;20542;-79
2023/04/27 08:33:37;;;;;;;2.55;0.80;;;11.30;63.30;;;;;;6233624;22;20024;-77
2023/04/27 08:36:04;;;;;;;2.85;1.30;;;11.40;63.40;;;;;;6207384;22;20102;-77
2023/04/27 08:38:34;;;;;;;2.58;0.88;;;11.50;63.00;;;;;;6235388;22;20023;-77
2023/04/27 08:41:01;;;;;;;2.47;0.70;;;11.40;61.90;;;;;;6206987;22;20023;-79
2023/04/27 08:43:48;;;;;;;2.22;0.73;;;11.40;61.30;;;;;;6235404;22;20023;-79
2023/04/27 08:46:25;;;;;;;3.13;0.90;;;11.30;60.00;;;;;;6183871;22;20030;-79
2023/04/27 08:48:53;;;;;;;1.63;0.60;;;11.30;61.80;;;;;;6207568;22;20353;-79
2023/04/27 08:51:21;;;;;;;2.33;0.73;;;11.40;61.30;;;;;;6238855;22;20039;-77
2023/04/27 08:53:53;;;;;;;3.03;0.50;;;11.20;58.30;;;;;;6232617;22;20030;-78
2023/04/27 08:56:22;;;;;;;1.70;0.55;;;11.30;58.90;;;;;;6211375;22;20024;-77
2023/04/27 08:58:53;;;;;;;3.28;0.50;;;11.40;56.90;;;;;;6186484;22;20011;-76
2023/04/27 09:01:22;;;;;;;2.25;0.70;;;12.30;56.20;;;;;;6208373;22;20606;-76
2023/04/27 09:03:56;;;;;;;0.85;0.40;;;12.80;54.00;;;;;;6212618;22;20032;-77
2023/04/27 09:06:34;;;;;;;1.65;0.50;;;13.10;54.10;;;;;;6236581;22;20019;-77
2023/04/27 09:09:02;;;;;;;1.52;0.30;;;13.10;52.40;;;;;;6207376;22;20035;-77
2023/04/27 09:11:31;;;;;;;1.45;0.45;;;13.40;51.80;;;;;;6237022;22;20442;-80
2023/04/27 09:14:00;;;;;;;3.70;0.93;;;13.60;52.00;;;;;;6208907;22;20023;-78
2023/04/27 09:16:29;;;;;;;3.20;0.35;;;13.80;52.30;;;;;;6262117;22;20016;-78
2023/04/27 09:18:57;;;;;;;2.45;0.60;;;13.80;52.90;;;;;;6211510;22;20024;-77
2023/04/27 09:21:29;;;;;;;1.65;0.47;;;13.90;52.50;;;;;;6261181;22;20062;-75
2023/04/27 09:23:57;;;;;;;2.17;0.55;;;13.80;52.40;;;;;;6208716;22;20043;-76
2023/04/27 09:26:26;;;;;;;4.72;0.55;;;13.90;52.30;;;;;;6235784;22;20031;-77
2023/04/27 09:28:57;;;;;;;3.55;0.43;;;14.00;52.60;;;;;;6212331;22;20077;-77
2023/04/27 09:31:32;;;;;;;4.38;0.68;;;14.30;51.20;;;;;;6238582;22;20142;-78
2023/04/27 09:33:59;;;;;;;10.65;0.47;;;14.40;51.40;;;;;;6239704;22;20039;-78
2023/04/27 09:36:27;;;;;;;1.10;0.30;;;14.50;51.50;;;;;;6216158;22;20062;-76
2023/04/27 09:38:54;;;;;;;3.17;0.60;;;14.10;51.90;;;;;;6212917;22;20344;-78
2023/04/27 09:41:22;;;;;;;2.58;0.80;;;13.80;51.40;;;;;;6234118;22;20022;-76
2023/04/27 09:43:50;;;;;;;2.45;0.40;;;13.70;50.80;;;;;;6236931;22;20012;-78
2023/04/27 09:46:18;;;;;;;1.83;0.40;;;13.60;51.90;;;;;;6235636;22;20019;-76
2023/04/27 09:48:46;;;;;;;3.75;0.50;;;13.50;50.50;;;;;;6209803;22;20074;-75
2023/04/27 09:51:14;;;;;;;1.50;0.47;;;13.70;50.30;;;;;;6209634;22;20028;-76
2023/04/27 09:53:56;;;;;;;1.85;0.70;;;13.90;49.00;;;;;;6210656;22;20134;-78
2023/04/27 09:56:52;;;;;;;1.92;0.47;;;14.10;49.80;;;;;;6209745;22;20505;-78
2023/04/27 10:00:09;;;;;;;2.92;0.60;;;13.30;49.20;;;;;;6235140;22;20016;-77
2023/04/27 10:03:12;;;;;;;2.63;0.50;;;13.20;50.40;;;;;;6208913;22;20126;-79
2023/04/27 10:06:27;;;;;;;1.95;0.43;;;13.50;50.20;;;;;;6157307;22;20019;-77
2023/04/27 10:08:56;;;;;;;3.80;0.77;;;13.90;49.30;;;;;;6098859;22;20458;-76
2023/04/27 10:11:43;;;;;;;1.92;0.60;;;14.00;48.90;;;;;;6209264;22;20419;-76
2023/04/27 10:14:17;;;;;;;2.30;0.88;;;14.30;49.00;;;;;;6211294;22;20016;-80
2023/04/27 10:16:53;;;;;;;1.75;0.55;;;14.40;49.90;;;;;;6209248;22;20094;-79
2023/04/27 10:19:23;;;;;;;1.80;0.80;;;14.30;50.20;;;;;;6235320;22;20085;-77
2023/04/27 10:22:04;;;;;;;3.55;0.93;;;14.10;50.60;;;;;;6236459;22;20039;-77
2023/04/27 10:24:45;;;;;;;1.92;0.60;;;13.80;48.70;;;;;;6235987;22;20066;-76
2023/04/27 10:27:18;;;;;;;1.65;0.40;;;13.80;50.40;;;;;;6237796;22;20023;-79
2023/04/27 10:29:46;;;;;;;3.08;0.50;;;14.00;50.60;;;;;;6233571;22;20077;-78
2023/04/27 10:32:24;;;;;;;1.75;0.40;;;14.30;49.80;;;;;;6224919;22;20031;-78
2023/04/27 10:35:02;;;;;;;2.50;0.60;;;14.40;50.00;;;;;;6234340;22;20117;-78
2023/04/27 10:37:41;;;;;;;2.33;0.70;;;14.20;49.40;;;;;;6234074;22;20089;-79
2023/04/27 10:40:13;;;;;;;4.00;1.08;;;13.80;49.90;;;;;;6208291;22;20447;-77
2023/04/27 10:42:41;;;;;;;4.90;0.60;;;13.70;50.00;;;;;;6233191;22;20047;-77
2023/04/27 10:45:08;;;;;;;1.63;0.70;;;13.90;50.40;;;;;;6233616;22;20435;-78
2023/04/27 10:47:40;;;;;;;4.32;0.77;;;14.60;49.20;;;;;;6236737;22;20020;-79
2023/04/27 10:50:13;;;;;;;1.63;0.63;;;15.10;51.60;;;;;;6209332;22;20028;-78
2023/04/27 10:52:45;;;;;;;4.72;0.85;;;15.00;50.30;;;;;;6210353;22;20449;-78
2023/04/27 10:55:13;;;;;;;2.97;0.73;;;15.40;51.10;;;;;;6208032;22;20027;-77
2023/04/27 10:57:51;;;;;;;2.53;0.85;;;15.50;50.00;;;;;;6209722;22;20421;-78
2023/04/27 11:00:32;;;;;;;4.45;1.48;;;15.10;48.80;;;;;;6207517;22;20024;-78
2023/04/27 11:03:20;;;;;;;4.13;0.93;;;14.80;48.90;;;;;;6231563;22;20121;-78
2023/04/27 11:05:57;;;;;;;3.63;1.00;;;14.60;49.40;;;;;;6205422;22;20089;-79
2023/04/27 11:08:24;;;;;;;2.10;0.93;;;14.20;50.20;;;;;;6230534;22;20422;-78
2023/04/27 11:10:52;;;;;;;4.72;1.67;;;14.20;49.10;;;;;;6208304;22;20427;-79
2023/04/27 11:13:24;;;;;;;1.17;0.88;;;14.10;49.50;;;;;;6206823;22;20357;-78
2023/04/27 11:15:56;;;;;;;4.35;0.70;;;14.60;49.20;;;;;;6208259;22;20090;-79
2023/04/27 11:18:30;;;;;;;3.10;1.00;;;14.50;50.10;;;;;;6207761;22;20027;-80
2023/04/27 11:21:09;;;;;;;3.15;0.80;;;14.70;51.10;;;;;;6206599;22;20446;-79
2023/04/27 11:23:37;;;;;;;2.35;1.05;;;14.80;49.40;;;;;;6205235;22;20203;-78
2023/04/27 11:26:11;;;;;;;1.77;0.82;;;15.10;48.60;;;;;;6207606;22;20047;-78
2023/04/27 11:28:38;;;;;;;3.08;0.90;;;15.20;48.30;;;;;;6231801;22;20034;-79
2023/04/27 11:31:06;;;;;;;2.67;1.00;;;15.50;51.20;;;;;;6206772;22;20032;-79
2023/04/27 11:33:33;;;;;;;2.95;0.80;;;15.20;47.80;;;;;;6218973;22;20027;-79
2023/04/27 11:36:02;;;;;;;2.10;1.05;;;15.00;48.70;;;;;;6229765;22;20035;-79
2023/04/27 11:38:33;;;;;;;2.50;0.93;;;15.60;49.60;;;;;;6207284;22;20027;-79
2023/04/27 11:41:04;;;;;;;4.90;1.20;;;15.60;49.10;;;;;;6232930;22;20026;-80
2023/04/27 11:43:32;;;;;;;4.03;1.00;;;15.10;48.70;;;;;;6232254;22;20028;-78
2023/04/27 11:46:07;;;;;;;2.25;0.85;;;15.40;51.60;;;;;;6208270;22;20766;-79
2023/04/27 11:48:36;;;;;;;1.95;1.05;;;15.40;51.10;;;;;;6209376;22;20028;-78
2023/04/27 11:51:05;;;;;;;2.63;0.85;;;15.70;50.50;;;;;;6208278;22;20020;-78
2023/04/27 11:53:37;;;;;;;2.42;0.80;;;15.70;51.30;;;;;;6205063;22;20051;-79
2023/04/27 11:56:05;;;;;;;;;;;15.10;48.90;;;;;;6204318;22;20027;-79
2023/04/27 11:58:36;;;;;;;3.42;1.10;;;15.40;49.10;;;;;;6206707;22;20379;-79
2023/04/27 12:01:07;;;;;;;4.45;1.00;;;15.00;48.50;;;;;;6205799;22;20038;-79
2023/04/27 12:03:35;;;;;;;6.82;2.28;;;14.50;47.80;;;;;;6206162;22;20046;-79
2023/04/27 12:06:03;;;;;;;4.20;1.70;;;14.60;50.50;;;;;;6205674;22;20065;-79
2023/04/27 12:08:47;;;;;;;3.63;1.13;;;14.50;50.00;;;;;;6209735;22;20577;-79
2023/04/27 12:11:15;;;;;;;4.45;0.98;;;14.70;52.00;;;;;;6231781;22;20027;-79
2023/04/27 12:13:43;;;;;;;2.40;0.95;;;14.80;50.80;;;;;;6232627;22;20561;-78
2023/04/27 12:16:11;;;;;;;3.15;1.05;;;15.20;51.50;;;;;;6207007;22;20027;-79
2023/04/27 12:18:38;;;;;;;3.25;0.98;;;15.50;50.40;;;;;;6231198;22;20446;-79
2023/04/27 12:21:06;;;;;;;3.65;0.70;;;15.60;48.50;;;;;;6257315;22;20034;-79
2023/04/27 12:23:35;;;;;;;4.47;0.75;;;15.80;50.30;;;;;;6205728;22;20493;-78
2023/04/27 12:26:02;;;;;;;5.45;1.25;;;15.90;50.40;;;;;;6205139;22;20500;-79
2023/04/27 12:28:29;;;;;;;3.90;1.45;;;15.00;49.50;;;;;;6230128;22;20019;-79
2023/04/27 12:30:57;;;;;;;10.52;1.45;;;14.60;50.10;;;;;;6205709;22;20023;-79
2023/04/27 12:33:25;;;;;;;3.92;0.75;;;14.60;50.50;;;;;;6232180;22;20054;-78
2023/04/27 12:35:52;;;;;;;3.13;1.08;;;14.50;50.80;;;;;;6181122;22;20024;-78
2023/04/27 12:38:19;;;;;;;2.75;0.63;;;14.50;49.80;;;;;;6206399;22;20474;-78
2023/04/27 12:40:47;;;;;;;1.83;0.63;;;14.50;49.50;;;;;;6207882;22;20437;-79
2023/04/27 12:43:15;;;;;;;3.30;0.63;;;14.30;49.60;;;;;;6207262;22;20027;-78
2023/04/27 12:45:42;;;;;;;2.75;0.93;;;14.30;50.50;;;;;;6208054;22;20459;-78
2023/04/27 12:48:09;;;;;;;3.78;0.68;;;14.10;50.00;;;;;;6206774;22;20028;-79
2023/04/27 12:50:36;;;;;;;1.40;0.63;;;14.30;51.10;;;;;;6206657;22;20031;-78
2023/04/27 12:53:04;;;;;;;1.38;0.68;;;14.30;51.50;;;;;;6204873;22;20019;-78
2023/04/27 12:55:31;;;;;;;4.00;1.10;;;14.10;50.60;;;;;;6205731;22;20115;-78
2023/04/27 12:58:01;;;;;;;1.73;0.70;;;14.10;50.00;;;;;;6231485;22;20410;-78
2023/04/27 13:00:28;;;;;;;1.85;0.80;;;14.20;50.10;;;;;;6206272;22;20459;-79